createdAt,value
2024-03-07T00:02:53.389Z,52.35
2024-03-07T00:05:58.235Z,45.90
2024-03-07T00:09:01.449Z,46.70
2024-03-07T00:12:08.659Z,48.13
2024-03-07T00:15:14.330Z,49.30
2024-03-07T00:18:17.010Z,48.72
2024-03-07T00:21:20.724Z,48.47
2024-03-07T00:24:23.986Z,44.85
2024-03-07T00:27:27.277Z,48.55
2024-03-07T00:30:30.428Z,57.03
2024-03-07T00:33:50.909Z,63.05
2024-03-07T00:36:59.995Z,55.58
2024-03-07T00:40:02.570Z,45.80
2024-03-07T00:43:04.952Z,47.08
2024-03-07T00:46:07.641Z,44.60
2024-03-07T00:49:10.280Z,51.25
2024-03-07T00:52:14.488Z,50.60
2024-03-07T00:55:17.610Z,47.83
2024-03-07T00:58:20.042Z,44.17
2024-03-07T01:01:22.762Z,47.25
2024-03-07T01:04:25.927Z,51.17
2024-03-07T01:07:29.882Z,44.45
2024-03-07T01:10:32.669Z,48.90
2024-03-07T01:13:35.194Z,51.33
2024-03-07T01:16:37.639Z,50.15
2024-03-07T01:19:40.266Z,51.13
2024-03-07T01:22:44.259Z,57.22
2024-03-07T01:25:46.821Z,47.13
2024-03-07T01:28:49.431Z,50.30
2024-03-07T01:31:51.989Z,47.70
2024-03-07T01:34:54.560Z,47.53
2024-03-07T01:37:58.373Z,47.78
2024-03-07T01:41:01.028Z,47.00
2024-03-07T01:44:03.564Z,46.60
2024-03-07T01:47:06.490Z,45.67
2024-03-07T01:50:09.278Z,40.17
2024-03-07T01:53:13.801Z,44.90
2024-03-07T01:56:17.452Z,45.03
2024-03-07T01:59:21.811Z,50.15
2024-03-07T02:02:24.342Z,47.20
2024-03-07T02:05:26.712Z,50.10
2024-03-07T02:08:30.440Z,43.03
2024-03-07T02:11:32.865Z,40.33
2024-03-07T02:14:35.699Z,46.53
2024-03-07T02:17:38.429Z,44.03
2024-03-07T02:20:45.436Z,43.75
2024-03-07T02:23:48.039Z,49.50
2024-03-07T02:26:50.545Z,46.35
2024-03-07T02:29:53.160Z,43.00
2024-03-07T02:32:56.812Z,43.80
2024-03-07T02:36:01.053Z,48.67
2024-03-07T02:39:05.516Z,45.10
2024-03-07T02:42:07.841Z,45.63
2024-03-07T02:45:11.663Z,42.83
2024-03-07T02:48:15.190Z,41.20
2024-03-07T02:51:19.021Z,42.85
2024-03-07T02:54:21.380Z,43.75
2024-03-07T02:57:23.758Z,43.50
2024-03-07T03:00:30.833Z,49.13
2024-03-07T03:03:33.360Z,44.58
2024-03-07T03:06:37.101Z,39.17
2024-03-07T03:09:44.437Z,42.65
2024-03-07T03:12:47.929Z,46.35
2024-03-07T03:15:50.576Z,49.03
2024-03-07T03:18:53.238Z,42.40
2024-03-07T03:21:57.088Z,45.50
2024-03-07T03:24:59.513Z,50.72
2024-03-07T03:28:04.924Z,47.88
2024-03-07T03:31:09.694Z,45.97
2024-03-07T03:34:12.602Z,48.20
2024-03-07T03:37:16.659Z,47.00
2024-03-07T03:40:19.177Z,44.15
2024-03-07T03:43:21.899Z,50.38
2024-03-07T03:46:24.733Z,45.33
2024-03-07T03:49:27.082Z,47.50
2024-03-07T03:52:31.730Z,50.22
2024-03-07T03:55:34.386Z,45.55
2024-03-07T03:58:37.067Z,49.53
2024-03-07T04:01:39.379Z,42.10
2024-03-07T04:04:41.956Z,51.65
2024-03-07T04:07:45.814Z,43.63
2024-03-07T04:10:48.125Z,45.80
2024-03-07T04:13:50.388Z,39.55
2024-03-07T04:16:52.671Z,45.67
2024-03-07T04:19:54.921Z,46.55
2024-03-07T04:22:58.576Z,42.25
2024-03-07T04:26:00.984Z,48.95
2024-03-07T04:29:03.938Z,43.58
2024-03-07T04:32:06.421Z,40.45
2024-03-07T04:35:11.860Z,43.13
2024-03-07T04:38:16.806Z,46.78
2024-03-07T04:41:19.803Z,43.63
2024-03-07T04:44:23.398Z,39.67
2024-03-07T04:47:25.736Z,38.28
2024-03-07T04:50:28.129Z,37.95
2024-03-07T04:53:31.777Z,44.42
2024-03-07T04:56:34.108Z,45.35
2024-03-07T04:59:36.411Z,41.17
2024-03-07T05:02:38.788Z,44.08
2024-03-07T05:05:42.410Z,40.55
2024-03-07T05:08:48.618Z,39.90
2024-03-07T05:11:53.108Z,40.78
2024-03-07T05:14:55.732Z,46.53
2024-03-07T05:17:58.777Z,45.45
2024-03-07T05:21:21.294Z,41.80
2024-03-07T05:24:24.976Z,41.67
2024-03-07T05:27:28.937Z,41.50
2024-03-07T05:30:33.489Z,42.85
2024-03-07T05:33:35.808Z,48.35
2024-03-07T05:36:45.122Z,48.42
2024-03-07T05:39:48.781Z,46.78
2024-03-07T05:42:51.253Z,44.05
2024-03-07T05:45:53.512Z,41.17
2024-03-07T05:48:57.341Z,47.28
2024-03-07T05:51:59.711Z,38.80
2024-03-07T05:55:07.759Z,43.78
2024-03-07T05:58:11.190Z,48.10
2024-03-07T06:01:13.528Z,43.13
2024-03-07T06:04:16.441Z,44.88
2024-03-07T06:07:18.821Z,42.97
2024-03-07T06:10:25.156Z,48.50
2024-03-07T06:13:27.572Z,51.55
2024-03-07T06:16:33.625Z,38.63
2024-03-07T06:19:35.857Z,41.95
2024-03-07T06:22:38.154Z,45.95
2024-03-07T06:25:48.664Z,42.10
2024-03-07T06:28:51.148Z,42.25
2024-03-07T06:31:55.019Z,40.60
2024-03-07T06:34:57.301Z,38.75
2024-03-07T06:38:02.384Z,39.53
2024-03-07T06:41:06.153Z,32.33
2024-03-07T06:44:10.660Z,37.58
2024-03-07T06:47:13.148Z,30.88
2024-03-07T06:50:27.396Z,33.00
2024-03-07T06:53:35.415Z,29.58
2024-03-07T06:56:41.014Z,33.25
2024-03-07T06:59:43.408Z,28.73
2024-03-07T07:02:45.836Z,33.70
2024-03-07T07:05:48.286Z,31.10
2024-03-07T07:08:50.888Z,31.73
2024-03-07T07:11:54.658Z,30.33
2024-03-07T07:14:57.363Z,27.55
2024-03-07T07:18:00.373Z,29.25
2024-03-07T07:21:04.673Z,29.90
2024-03-07T07:24:12.103Z,33.58
2024-03-07T07:27:16.078Z,30.77
2024-03-07T07:30:19.550Z,27.42
2024-03-07T07:33:22.062Z,27.55
2024-03-07T07:39:27.541Z,34.38
2024-03-07T07:42:31.240Z,29.35
2024-03-07T07:45:36.708Z,28.85
2024-03-07T07:48:40.055Z,29.40
2024-03-07T07:51:42.940Z,31.15
2024-03-07T07:54:45.222Z,28.15
2024-03-07T07:57:53.500Z,25.40
2024-03-07T08:00:55.961Z,24.13
2024-03-07T08:03:59.726Z,26.05
2024-03-07T08:07:01.952Z,26.48
2024-03-07T08:10:04.750Z,26.10
2024-03-07T08:13:09.580Z,26.00
2024-03-07T08:16:12.424Z,25.58
2024-03-07T08:19:15.541Z,27.27
2024-03-07T08:22:17.757Z,26.85
2024-03-07T08:25:21.413Z,27.38
2024-03-07T08:28:25.267Z,25.35
2024-03-07T08:31:28.035Z,23.25
2024-03-07T08:34:30.336Z,24.73
2024-03-07T08:37:33.600Z,24.88
2024-03-07T08:40:36.002Z,25.27
2024-03-07T08:43:39.588Z,21.50
2024-03-07T08:46:42.872Z,19.52
2024-03-07T08:49:45.212Z,19.63
2024-03-07T08:52:49.344Z,21.75
2024-03-07T08:55:51.731Z,18.35
2024-03-07T08:58:55.371Z,18.00
2024-03-07T09:01:57.731Z,21.17
2024-03-07T09:05:00.009Z,21.10
2024-03-07T09:08:02.934Z,19.88
2024-03-07T09:11:05.157Z,19.27
2024-03-07T09:14:10.510Z,17.52
2024-03-07T09:17:13.200Z,16.15
2024-03-07T09:20:15.754Z,19.85
2024-03-07T09:23:18.251Z,19.13
2024-03-07T09:26:21.201Z,17.73
2024-03-07T09:29:24.936Z,20.40
2024-03-07T09:32:29.219Z,20.35
2024-03-07T09:35:31.786Z,22.55
2024-03-07T09:38:34.178Z,26.25
2024-03-07T09:41:36.723Z,19.65
2024-03-07T09:44:41.827Z,22.35
2024-03-07T09:47:47.345Z,20.40
2024-03-07T09:50:53.005Z,23.85
2024-03-07T09:53:59.393Z,22.13
2024-03-07T09:57:06.134Z,25.70
2024-03-07T10:00:19.381Z,21.25
2024-03-07T10:03:25.321Z,24.73
2024-03-07T10:06:29.427Z,27.10
2024-03-07T10:09:37.261Z,22.98
2024-03-07T10:12:39.703Z,22.73
2024-03-07T10:15:44.189Z,20.52
2024-03-07T10:18:47.223Z,22.50
2024-03-07T10:21:49.650Z,20.75
2024-03-07T10:24:52.108Z,26.45
2024-03-07T10:27:55.570Z,24.30
2024-03-07T10:31:02.103Z,24.65
2024-03-07T10:34:04.997Z,25.10
2024-03-07T10:37:10.287Z,24.48
2024-03-07T10:40:19.422Z,22.50
2024-03-07T10:43:22.278Z,24.73
2024-03-07T10:46:26.634Z,18.45
2024-03-07T10:49:32.861Z,22.10
2024-03-07T10:52:40.963Z,24.10
2024-03-07T10:55:54.280Z,22.13
2024-03-07T10:59:00.625Z,20.08
2024-03-07T11:02:17.296Z,20.58
2024-03-07T11:05:20.045Z,24.90
2024-03-07T11:08:22.613Z,23.80
2024-03-07T11:11:26.035Z,24.05
2024-03-07T11:14:29.100Z,25.58
2024-03-07T11:17:34.360Z,24.55
2024-03-07T11:20:38.264Z,25.67
2024-03-07T11:23:46.276Z,23.08
2024-03-07T11:26:48.575Z,20.63
2024-03-07T11:29:55.512Z,19.20
2024-03-07T11:33:05.058Z,24.02
2024-03-07T11:36:08.992Z,20.50
2024-03-07T11:39:43.885Z,22.83
2024-03-07T11:42:49.155Z,25.25
2024-03-07T11:45:53.480Z,21.27
2024-03-07T11:49:00.618Z,24.38
2024-03-07T11:52:05.793Z,23.77
2024-03-07T11:55:10.292Z,21.15
2024-03-07T11:58:17.253Z,24.17
2024-03-07T12:01:19.594Z,21.20
2024-03-07T12:04:24.618Z,23.55
2024-03-07T12:07:28.008Z,22.98
2024-03-07T12:10:30.537Z,19.83
2024-03-07T12:13:33.888Z,23.73
2024-03-07T12:16:36.358Z,22.73
2024-03-07T12:19:40.248Z,19.02
2024-03-07T12:22:44.272Z,23.80
2024-03-07T12:25:46.871Z,21.33
2024-03-07T12:28:49.527Z,23.52
2024-03-07T12:31:52.608Z,20.35
2024-03-07T12:34:56.304Z,22.25
2024-03-07T12:37:59.225Z,18.85
2024-03-07T12:41:18.385Z,19.23
2024-03-07T12:44:21.351Z,20.13
2024-03-07T12:47:26.806Z,18.00
2024-03-07T12:50:30.468Z,15.75
2024-03-07T12:53:32.902Z,19.05
2024-03-07T12:56:35.931Z,17.35
2024-03-07T12:59:43.152Z,17.90
2024-03-07T13:02:47.556Z,17.33
2024-03-07T13:05:51.371Z,13.30
2024-03-07T13:08:54.814Z,14.40
2024-03-07T13:11:57.425Z,10.40
2024-03-07T13:15:01.976Z,14.95
2024-03-07T13:18:06.191Z,12.90
2024-03-07T13:21:12.082Z,13.25
2024-03-07T13:24:14.957Z,13.25
2024-03-07T13:27:26.515Z,16.25
2024-03-07T13:30:29.383Z,14.50
2024-03-07T13:33:31.911Z,17.00
2024-03-07T13:36:38.832Z,21.02
2024-03-07T13:39:44.517Z,15.13
2024-03-07T13:42:46.836Z,14.38
2024-03-07T13:45:49.900Z,18.80
2024-03-07T13:48:53.581Z,12.93
2024-03-07T13:52:04.375Z,16.63
2024-03-07T13:55:10.002Z,12.00
2024-03-07T13:58:18.984Z,14.70
2024-03-07T14:01:34.157Z,15.60
2024-03-07T14:04:50.814Z,11.55
2024-03-07T14:08:15.295Z,17.52
2024-03-07T14:11:46.709Z,15.48
2024-03-07T14:15:22.712Z,13.38
2024-03-07T14:19:22.296Z,13.50
2024-03-07T14:22:41.980Z,14.85
2024-03-07T14:26:04.761Z,15.50
2024-03-07T14:29:17.283Z,14.32
2024-03-07T14:32:23.536Z,13.95
2024-03-07T14:35:33.087Z,13.25
2024-03-07T14:38:47.175Z,11.07
2024-03-07T14:41:52.554Z,12.38
2024-03-07T14:44:57.697Z,16.08
2024-03-07T14:48:00.352Z,14.45
2024-03-07T14:51:06.882Z,16.42
2024-03-07T14:54:09.927Z,13.70
2024-03-07T14:57:14.662Z,13.13
2024-03-07T15:03:30.032Z,19.75
2024-03-07T15:06:38.796Z,14.48
2024-03-07T15:09:41.080Z,12.10
2024-03-07T15:12:44.997Z,9.25
2024-03-07T15:15:47.396Z,12.75
2024-03-07T15:18:49.883Z,13.65
2024-03-07T15:21:53.537Z,12.57
2024-03-07T15:24:55.894Z,11.05
2024-03-07T15:28:02.778Z,10.93
2024-03-07T15:31:08.104Z,12.68
2024-03-07T15:34:10.424Z,12.43
2024-03-07T15:37:15.686Z,12.73
2024-03-07T15:40:18.328Z,12.55
2024-03-07T15:43:22.016Z,11.25
2024-03-07T15:46:24.355Z,11.18
2024-03-07T15:49:26.864Z,13.88
2024-03-07T15:52:29.193Z,13.73
2024-03-07T15:55:32.825Z,14.70
2024-03-07T15:58:36.692Z,13.73
2024-03-07T16:01:39.314Z,14.63
2024-03-07T16:04:41.782Z,15.27
2024-03-07T16:07:44.286Z,14.40
2024-03-07T16:10:48.509Z,13.48
2024-03-07T16:13:52.543Z,15.65
2024-03-07T16:16:55.398Z,11.35
2024-03-07T16:19:57.792Z,12.05
2024-03-07T16:23:06.448Z,16.35
2024-03-07T16:26:08.930Z,14.82
2024-03-07T16:29:12.767Z,15.85
2024-03-07T16:32:15.467Z,16.02
2024-03-07T16:35:18.558Z,13.07
2024-03-07T16:38:24.333Z,17.52
2024-03-07T16:41:27.855Z,15.73
2024-03-07T16:44:33.272Z,16.55
2024-03-07T16:47:38.644Z,15.23
2024-03-07T16:50:44.756Z,16.25
2024-03-07T16:53:47.759Z,16.35
2024-03-07T16:56:50.767Z,17.60
2024-03-07T16:59:54.686Z,15.68
2024-03-07T17:03:00.150Z,18.70
2024-03-07T17:06:02.880Z,14.70
2024-03-07T17:09:05.879Z,17.95
2024-03-07T17:12:08.514Z,14.88
2024-03-07T17:15:15.891Z,19.17
2024-03-07T17:18:18.561Z,13.93
2024-03-07T17:21:21.072Z,17.17
2024-03-07T17:24:29.110Z,16.88
2024-03-07T17:27:34.411Z,14.45
2024-03-07T17:31:02.690Z,19.52
2024-03-07T17:34:07.560Z,15.88
2024-03-07T17:37:09.859Z,16.15
2024-03-07T17:40:22.195Z,17.67
2024-03-07T17:43:25.557Z,18.17
2024-03-07T17:46:33.788Z,17.25
2024-03-07T17:49:45.417Z,17.70
2024-03-07T17:52:49.267Z,16.08
2024-03-07T17:55:52.296Z,20.80
2024-03-07T17:58:55.217Z,17.45
2024-03-07T18:02:03.143Z,17.83
2024-03-07T18:05:10.774Z,19.52
2024-03-07T18:08:33.813Z,19.90
2024-03-07T18:11:40.623Z,18.45
2024-03-07T18:15:03.905Z,18.30
2024-03-07T18:18:17.146Z,18.13
2024-03-07T18:21:19.673Z,16.58
2024-03-07T18:24:22.178Z,24.00
2024-03-07T18:27:24.709Z,22.27
2024-03-07T18:30:27.317Z,17.73
2024-03-07T18:33:33.778Z,21.60
2024-03-07T18:36:36.192Z,17.20
2024-03-07T18:39:38.728Z,19.80
2024-03-07T18:42:44.648Z,22.85
2024-03-07T18:45:48.192Z,18.98
2024-03-07T18:48:56.296Z,23.48
2024-03-07T18:52:01.859Z,18.42
2024-03-07T18:55:17.822Z,23.80
2024-03-07T18:58:23.614Z,24.13
2024-03-07T19:01:29.227Z,22.15
2024-03-07T19:04:33.466Z,20.55
2024-03-07T19:07:36.005Z,23.65
2024-03-07T19:10:38.414Z,19.27
2024-03-07T19:13:40.771Z,21.50
2024-03-07T19:16:52.049Z,20.55
2024-03-07T19:22:58.328Z,23.58
2024-03-07T19:26:04.478Z,21.80
2024-03-07T19:29:06.701Z,20.10
2024-03-07T19:32:09.454Z,23.08
2024-03-07T19:35:16.359Z,20.83
2024-03-07T19:38:18.954Z,21.52
2024-03-07T19:41:24.024Z,20.92
2024-03-07T19:44:26.753Z,22.10
2024-03-07T19:47:31.799Z,20.23
2024-03-07T19:50:37.846Z,25.27
2024-03-07T19:53:40.772Z,24.90
2024-03-07T19:56:43.613Z,22.05
2024-03-07T19:59:46.224Z,19.95
2024-03-07T20:02:50.420Z,20.58
2024-03-07T20:05:54.642Z,20.52
2024-03-07T20:09:03.443Z,20.48
2024-03-07T20:12:07.349Z,22.98
2024-03-07T20:15:13.379Z,22.30
2024-03-07T20:18:16.203Z,18.38
2024-03-07T20:21:21.354Z,25.85
2024-03-07T20:24:24.732Z,19.60
2024-03-07T20:27:29.168Z,16.90
2024-03-07T20:30:35.269Z,20.10
2024-03-07T20:33:38.424Z,20.40
2024-03-07T20:36:46.889Z,21.95
2024-03-07T20:39:58.172Z,26.55
2024-03-07T20:43:08.612Z,21.60
2024-03-07T20:46:10.928Z,18.23
2024-03-07T20:49:14.638Z,26.33
2024-03-07T20:52:18.321Z,21.17
2024-03-07T20:55:23.922Z,22.13
2024-03-07T20:58:29.283Z,22.65
2024-03-07T21:01:31.614Z,24.15
2024-03-07T21:04:33.889Z,19.75
2024-03-07T21:07:39.534Z,21.77
2024-03-07T21:10:42.352Z,25.13
2024-03-07T21:13:44.973Z,23.75
2024-03-07T21:16:47.575Z,22.48
2024-03-07T21:19:49.854Z,24.27
2024-03-07T21:22:53.833Z,21.63
2024-03-07T21:25:56.143Z,23.35
2024-03-07T21:28:58.559Z,23.98
2024-03-07T21:32:01.410Z,24.40
2024-03-07T21:35:08.057Z,26.67
2024-03-07T21:38:12.198Z,23.02
2024-03-07T21:41:15.374Z,23.65
2024-03-07T21:44:17.634Z,24.92
2024-03-07T21:47:20.028Z,25.33
2024-03-07T21:50:23.681Z,23.52
2024-03-07T21:53:28.784Z,23.98
2024-03-07T21:56:31.554Z,17.33
2024-03-07T21:59:36.161Z,26.95
2024-03-07T22:02:49.668Z,22.63
2024-03-07T22:05:59.528Z,25.73
2024-03-07T22:09:03.675Z,23.05
2024-03-07T22:12:07.823Z,25.67
2024-03-07T22:15:11.660Z,22.75
2024-03-07T22:18:14.141Z,27.85
2024-03-07T22:21:16.670Z,30.77
2024-03-07T22:24:20.291Z,22.20
2024-03-07T22:27:24.078Z,25.77
2024-03-07T22:30:26.428Z,26.67
2024-03-07T22:33:29.425Z,25.52
2024-03-07T22:36:32.539Z,28.95
2024-03-07T22:39:36.142Z,24.13
2024-03-07T22:42:41.951Z,19.90
2024-03-07T22:45:44.232Z,27.13
2024-03-07T22:48:48.596Z,25.50
2024-03-07T22:51:51.020Z,24.38
2024-03-07T22:54:55.001Z,26.58
2024-03-07T22:57:57.391Z,25.70
2024-03-07T23:01:00.699Z,23.73
2024-03-07T23:04:06.159Z,27.80
2024-03-07T23:07:08.599Z,27.92
2024-03-07T23:10:12.318Z,27.77
2024-03-07T23:16:34.476Z,27.13
2024-03-07T23:19:37.540Z,27.55
2024-03-07T23:22:40.550Z,30.27
2024-03-07T23:25:44.130Z,27.83
2024-03-07T23:28:46.426Z,30.15
2024-03-07T23:31:50.713Z,28.48
2024-03-07T23:34:59.133Z,30.15
2024-03-07T23:38:01.476Z,29.25
2024-03-07T23:41:05.217Z,29.60
2024-03-07T23:44:08.380Z,23.67
2024-03-07T23:47:10.641Z,29.42
2024-03-07T23:50:15.139Z,34.03
2024-03-07T23:53:17.398Z,26.40
2024-03-07T23:56:22.803Z,27.25
2024-03-07T23:59:26.670Z,34.50
